Time;durP1;ratioP1;P1;durP2;ratioP2;P2;SDS_P1;SDS_P2;PMS_P1;PMS_P2;Temp;Humidity;BMP_temperature;BMP_pressure;BME280_temperature;BME280_humidity;BME280_pressure;Samples;Min_cycle;Max_cycle;Signal;HPM_P1;HPM_P2
2024/04/16 00:04:23;;;;;;;34.60;24.10;;;;;;;13.57;76.54;97386.70;232573;206;151963;-62
2024/04/16 00:09:26;;;;;;;32.70;20.40;;;;;;;13.52;76.57;97402.77;232447;206;139009;-61
2024/04/16 00:14:28;;;;;;;28.90;20.10;;;;;;;13.51;76.71;97402.86;232562;203;138575;-61
2024/04/16 00:19:33;;;;;;;33.50;20.70;;;;;;;13.52;76.65;97396.35;232422;206;157777;-62
2024/04/16 00:24:36;;;;;;;27.60;19.50;;;;;;;13.52;76.59;97386.88;232493;206;138540;-62
2024/04/16 00:29:39;;;;;;;27.40;18.60;;;;;;;13.56;76.51;97386.84;232571;201;137453;-64
2024/04/16 00:34:42;;;;;;;27.50;17.10;;;;;;;13.59;76.32;97380.84;232551;203;151320;-62
2024/04/16 00:39:47;;;;;;;24.70;17.40;;;;;;;13.58;76.13;97386.66;232439;206;138517;-64
2024/04/16 00:44:50;;;;;;;26.10;16.80;;;;;;;13.55;76.10;97397.75;232538;206;138007;-64
2024/04/16 00:49:53;;;;;;;22.00;13.70;;;;;;;13.55;76.01;97400.42;232506;203;152889;-63
2024/04/16 00:54:56;;;;;;;20.90;14.60;;;;;;;13.67;75.79;97402.45;232573;206;137495;-63
2024/04/16 00:59:59;;;;;;;17.10;10.70;;;;;;;13.77;75.24;97391.10;232654;203;137452;-63
2024/04/16 01:05:02;;;;;;;18.30;11.70;;;;;;;13.82;74.64;97369.15;232394;203;151422;-62
2024/04/16 01:10:06;;;;;;;17.10;9.90;;;;;;;13.89;74.22;97365.29;232481;200;137998;-64
2024/04/16 01:15:10;;;;;;;15.80;10.50;;;;;;;13.88;73.88;97345.26;232597;203;136923;-61
2024/04/16 01:20:13;;;;;;;13.00;9.10;;;;;;;13.84;73.68;97336.52;232512;206;151348;-60
2024/04/16 01:25:16;;;;;;;13.30;8.40;;;;;;;13.81;73.64;97330.64;232644;206;137859;-62
2024/04/16 01:30:19;;;;;;;14.80;8.00;;;;;;;13.81;73.49;97318.60;232529;203;141332;-62
2024/04/16 01:35:22;;;;;;;12.10;7.60;;;;;;;13.90;73.39;97313.84;232692;203;151790;-63
2024/04/16 01:40:24;;;;;;;11.70;7.80;;;;;;;14.00;72.96;97322.99;232396;203;137572;-61
2024/04/16 01:45:27;;;;;;;11.50;7.10;;;;;;;14.03;72.88;97333.14;232537;206;137588;-62
2024/04/16 01:50:30;;;;;;;5.90;3.50;;;;;;;14.05;72.35;97344.92;232521;203;151425;-60
2024/04/16 01:55:35;;;;;;;5.90;2.60;;;;;;;13.81;66.86;97360.55;232461;204;136616;-63
2024/04/16 02:00:38;;;;;;;12.30;5.90;;;;;;;13.52;68.76;97357.23;232485;203;136551;-63
2024/04/16 02:05:41;;;;;;;11.20;6.60;;;;;;;13.40;70.94;97332.15;232671;203;151114;-61
2024/04/16 02:10:51;;;;;;;8.70;5.10;;;;;;;13.32;71.82;97339.15;232477;206;137239;-61
2024/04/16 02:15:54;;;;;;;9.40;4.50;;;;;;;13.36;72.10;97316.52;232471;203;138557;-61
2024/04/16 02:20:57;;;;;;;8.30;4.80;;;;;;;13.43;72.63;97314.55;232593;202;151596;-62
2024/04/16 02:26:01;;;;;;;7.60;4.40;;;;;;;13.50;72.82;97344.86;232527;203;137753;-59
2024/04/16 02:31:03;;;;;;;7.70;4.20;;;;;;;13.55;72.76;97368.38;232536;203;137282;-61
2024/04/16 02:36:07;;;;;;;7.00;4.20;;;;;;;13.54;72.95;97372.74;232696;206;151923;-60
2024/04/16 02:41:10;;;;;;;9.30;3.60;;;;;;;13.54;72.93;97369.71;232488;206;137445;-60
2024/04/16 02:46:12;;;;;;;8.40;3.60;;;;;;;13.58;72.45;97372.92;232507;203;137910;-59
2024/04/16 02:51:17;;;;;;;8.20;3.40;;;;;;;13.58;71.35;97352.39;232428;203;151356;-60
2024/04/16 02:56:19;;;;;;;5.00;2.50;;;;;;;13.59;70.04;97383.46;232540;203;137254;-63
2024/04/16 03:01:22;;;;;;;5.40;2.60;;;;;;;13.60;69.08;97387.84;232576;203;136826;-61
2024/04/16 03:06:25;;;;;;;4.90;1.70;;;;;;;13.59;68.44;97390.61;232550;203;154073;-62
2024/04/16 03:11:28;;;;;;;3.40;1.30;;;;;;;13.51;67.61;97395.11;232580;203;137044;-61
2024/04/16 03:16:31;;;;;;;4.70;1.40;;;;;;;13.41;67.19;97393.85;232537;203;138353;-58
2024/04/16 03:21:34;;;;;;;3.30;1.10;;;;;;;13.33;67.29;97388.36;232414;203;152384;-61
2024/04/16 03:26:37;;;;;;;3.60;1.10;;;;;;;13.27;67.34;97389.21;232528;206;140018;-61
2024/04/16 03:31:40;;;;;;;4.10;1.00;;;;;;;13.21;67.57;97372.77;232518;206;137386;-61
2024/04/16 03:36:44;;;;;;;3.40;0.90;;;;;;;13.15;67.70;97368.20;232543;203;151401;-63
2024/04/16 03:41:46;;;;;;;28.40;20.50;;;;;;;13.13;67.78;97374.50;232623;206;137208;-61
2024/04/16 03:46:50;;;;;;;8.10;5.50;;;;;;;13.20;67.44;97380.91;232526;203;137737;-61
2024/04/16 03:51:52;;;;;;;6.00;0.90;;;;;;;13.23;67.05;97376.70;232458;203;151503;-60
2024/04/16 03:56:55;;;;;;;4.00;0.80;;;;;;;13.26;66.35;97381.23;232296;206;137770;-61
2024/04/16 04:01:58;;;;;;;4.00;0.80;;;;;;;13.22;65.34;97400.20;232420;203;137791;-58
2024/04/16 04:07:03;;;;;;;2.70;0.70;;;;;;;13.15;64.44;97395.12;232409;206;152875;-60
2024/04/16 04:12:07;;;;;;;4.20;0.80;;;;;;;13.08;63.73;97401.92;232678;203;139842;-61
2024/04/16 04:17:10;;;;;;;1.50;0.70;;;;;;;13.00;63.89;97398.40;232595;203;138371;-61
2024/04/16 04:22:13;;;;;;;64.50;54.00;;;;;;;12.99;64.05;97386.77;232421;204;151397;-61
2024/04/16 04:27:16;;;;;;;13.10;7.80;;;;;;;13.03;64.35;97395.09;232461;206;137505;-50
2024/04/16 04:32:19;;;;;;;3.90;1.20;;;;;;;13.29;66.83;97415.88;232523;203;140787;-61
2024/04/16 04:37:22;;;;;;;5.10;1.00;;;;;;;13.41;63.08;97429.13;232451;203;151912;-60
2024/04/16 04:42:26;;;;;;;3.40;0.90;;;;;;;13.32;62.74;97424.66;232311;206;136614;-60
2024/04/16 04:47:29;;;;;;;3.20;0.90;;;;;;;13.22;62.23;97436.64;232588;206;136767;-61
2024/04/16 04:52:32;;;;;;;2.50;0.90;;;;;;;13.14;61.58;97455.60;232470;204;151533;-61
2024/04/16 04:57:35;;;;;;;4.00;1.00;;;;;;;13.06;60.66;97455.52;232623;203;138103;-60
2024/04/16 05:02:38;;;;;;;7.00;1.20;;;;;;;12.97;60.06;97463.52;232449;204;137453;-60
2024/04/16 05:07:41;;;;;;;3.90;0.90;;;;;;;12.86;59.38;97481.86;232466;203;151513;-61
2024/04/16 05:12:44;;;;;;;4.80;1.30;;;;;;;12.74;58.78;97493.98;232474;203;136885;-61
2024/04/16 05:17:47;;;;;;;89.70;70.90;;;;;;;12.63;56.58;97513.23;232652;199;137247;-59
2024/04/16 05:22:50;;;;;;;5.60;1.70;;;;;;;12.53;55.74;97528.71;232218;203;151952;-61
2024/04/16 05:27:53;;;;;;;5.90;1.10;;;;;;;12.43;55.52;97517.20;232423;200;137108;-60
2024/04/16 05:32:56;;;;;;;4.90;1.30;;;;;;;12.40;55.96;97510.06;232453;204;136778;-60
2024/04/16 05:37:59;;;;;;;9.90;1.60;;;;;;;12.38;56.97;97522.21;232502;204;152928;-60
2024/04/16 05:43:03;;;;;;;5.00;1.40;;;;;;;12.35;57.80;97512.17;232428;202;137867;-60
2024/04/16 05:48:07;;;;;;;3.10;1.10;;;;;;;12.31;57.67;97511.64;232709;202;154664;-60
2024/04/16 05:53:10;;;;;;;32.00;16.20;;;;;;;12.23;57.82;97515.24;232525;199;151372;-62
2024/04/16 05:58:14;;;;;;;8.00;2.00;;;;;;;12.21;57.61;97526.42;232472;203;139445;-60
2024/04/16 06:03:17;;;;;;;5.30;1.60;;;;;;;12.25;57.87;97529.27;232531;203;138327;-59
2024/04/16 06:08:20;;;;;;;3.70;1.40;;;;;;;12.23;57.20;97529.04;232536;202;151740;-60
2024/04/16 06:13:23;;;;;;;6.50;1.40;;;;;;;12.16;56.15;97541.84;232489;206;137281;-61
2024/04/16 06:18:27;;;;;;;7.60;1.00;;;;;;;12.08;55.54;97541.85;232539;206;137242;-60
2024/04/16 06:23:30;;;;;;;11.30;3.80;;;;;;;12.01;56.01;97568.96;232675;203;151279;-60
2024/04/16 06:28:33;;;;;;;4.20;1.00;;;;;;;12.00;55.87;97594.14;232597;206;137064;-58
2024/04/16 06:33:37;;;;;;;7.50;1.40;;;;;;;11.97;56.10;97586.20;232551;203;137400;-61
2024/04/16 06:38:40;;;;;;;4.20;1.70;;;;;;;11.94;56.40;97584.52;232445;203;151576;-61
2024/04/16 06:43:43;;;;;;;9.90;1.80;;;;;;;11.86;55.70;97592.73;232401;203;137337;-62
2024/04/16 06:48:49;;;;;;;4.40;1.30;;;;;;;11.79;54.89;97588.34;232492;203;137880;-61
2024/04/16 06:54:13;;;;;;;4.00;1.60;;;;;;;11.69;54.53;97617.86;232624;203;151148;-61
2024/04/16 06:59:16;;;;;;;2.80;1.30;;;;;;;11.60;54.54;97660.90;232421;200;136830;-62
2024/04/16 07:04:18;;;;;;;51.40;36.30;;;;;;;11.50;54.43;97685.27;232521;203;138165;-64
2024/04/16 07:09:21;;;;;;;3.20;1.70;;;;;;;11.43;54.51;97686.22;232496;203;151346;-62
2024/04/16 07:14:24;;;;;;;6.90;2.60;;;;;;;11.38;54.34;97681.38;232523;203;138181;-61
2024/04/16 07:19:27;;;;;;;3.30;1.10;;;;;;;11.29;54.25;97656.01;232533;203;136531;-62
2024/04/16 07:24:31;;;;;;;5.80;1.50;;;;;;;11.25;54.48;97639.18;232405;203;151444;-61
2024/04/16 07:29:34;;;;;;;2.50;0.90;;;;;;;11.28;54.37;97624.14;232712;203;138465;-61
2024/04/16 07:34:36;;;;;;;3.40;1.20;;;;;;;11.38;53.14;97631.60;232535;203;137253;-61
2024/04/16 07:39:40;;;;;;;8.60;1.30;;;;;;;11.42;52.41;97642.80;232532;203;151246;-61
2024/04/16 07:44:43;;;;;;;10.50;6.00;;;;;;;11.39;50.96;97642.51;232446;206;136810;-62
2024/04/16 07:49:46;;;;;;;6.00;1.70;;;;;;;11.31;51.20;97678.19;232462;203;138851;-62
2024/04/16 07:54:49;;;;;;;4.60;1.50;;;;;;;11.30;50.80;97684.35;232505;206;152197;-61
2024/04/16 07:59:52;;;;;;;8.70;1.30;;;;;;;11.33;51.13;97696.00;232580;202;138111;-63
2024/04/16 08:04:55;;;;;;;3.70;1.10;;;;;;;11.31;50.49;97712.34;232505;204;137450;-61
2024/04/16 08:09:59;;;;;;;222.20;166.70;;;;;;;11.26;50.69;97734.39;232482;198;151195;-60
2024/04/16 08:15:04;;;;;;;216.60;145.30;;;;;;;11.29;50.99;97737.73;232430;206;137922;-60
2024/04/16 08:20:07;;;;;;;10.00;2.20;;;;;;;11.30;50.36;97756.83;232428;203;138843;-61
2024/04/16 08:25:12;;;;;;;40.60;31.40;;;;;;;11.24;50.26;97765.48;232561;206;151149;-62
2024/04/16 08:30:15;;;;;;;5.50;2.10;;;;;;;11.16;50.47;97758.17;232714;203;136864;-63
2024/04/16 08:35:26;;;;;;;4.10;1.10;;;;;;;11.11;50.62;97753.07;232609;206;137176;-63
2024/04/16 08:40:30;;;;;;;8.40;1.20;;;;;;;11.10;50.48;97733.25;232471;203;151902;-60
2024/04/16 08:45:33;;;;;;;4.90;1.40;;;;;;;11.16;50.85;97733.70;232387;206;137723;-60
2024/04/16 08:50:36;;;;;;;75.90;55.60;;;;;;;11.22;50.26;97736.88;232484;204;136906;-62
2024/04/16 08:55:41;;;;;;;8.10;3.70;;;;;;;11.26;50.40;97757.48;232480;203;151484;-61
2024/04/16 09:00:45;;;;;;;5.70;1.50;;;;;;;11.34;50.31;97766.95;232288;203;136605;-61
2024/04/16 09:05:48;;;;;;;63.90;44.20;;;;;;;11.37;50.68;97769.98;232478;206;137181;-61
2024/04/16 09:10:54;;;;;;;11.50;3.80;;;;;;;11.45;51.05;97779.83;232360;206;151672;-60
2024/04/16 09:15:58;;;;;;;3.80;1.70;;;;;;;11.56;50.72;97762.20;232587;206;136588;-61
2024/04/16 09:21:01;;;;;;;6.50;1.60;;;;;;;11.65;50.82;97761.08;232300;203;138334;-60
2024/04/16 09:26:13;;;;;;;3.80;1.80;;;;;;;11.77;50.77;97755.06;232548;203;151135;-60
2024/04/16 09:31:17;;;;;;;5.30;1.70;;;;;;;11.77;50.26;97757.84;232589;206;138400;-61
2024/04/16 09:36:20;;;;;;;63.90;41.00;;;;;;;11.68;50.44;97758.30;232449;202;140483;-60
2024/04/16 09:41:30;;;;;;;5.40;1.50;;;;;;;11.61;48.76;97756.23;232509;202;153466;-65
2024/04/16 09:46:34;;;;;;;4.20;1.10;;;;;;;11.66;48.75;97757.23;232440;204;136712;-58
2024/04/16 09:51:38;;;;;;;4.20;1.00;;;;;;;11.70;47.70;97760.45;232450;204;137744;-59
2024/04/16 09:56:43;;;;;;;3.90;1.40;;;;;;;11.61;46.83;97763.30;232433;200;151349;-58
2024/04/16 10:01:47;;;;;;;2.50;1.00;;;;;;;11.58;46.40;97767.50;232490;203;137966;-59
2024/04/16 10:06:50;;;;;;;2.50;1.20;;;;;;;11.58;46.61;97754.35;232562;203;139337;-58
2024/04/16 10:11:54;;;;;;;6.10;1.00;;;;;;;11.63;47.02;97757.85;232610;203;151718;-58
2024/04/16 10:16:57;;;;;;;2.70;1.50;;;;;;;11.69;46.98;97762.70;232448;203;137009;-59
2024/04/16 10:22:04;;;;;;;3.60;1.40;;;;;;;11.74;46.98;97772.73;232377;207;137531;-58
2024/04/16 10:27:09;;;;;;;8.00;1.50;;;;;;;11.70;46.70;97792.38;232371;206;151523;-59
2024/04/16 10:32:12;;;;;;;3.90;1.50;;;;;;;11.66;46.73;97794.71;232267;204;137383;-56
2024/04/16 10:37:18;;;;;;;2.40;1.10;;;;;;;11.66;46.65;97796.82;232415;203;137416;-59
2024/04/16 10:42:26;;;;;;;5.50;1.50;;;;;;;11.62;45.60;97805.18;232461;203;151397;-56
2024/04/16 10:47:30;;;;;;;5.80;1.30;;;;;;;11.59;45.36;97792.23;232461;200;138440;-58
2024/04/16 10:52:33;;;;;;;2.50;1.20;;;;;;;11.60;45.49;97790.05;232389;207;137562;-59
2024/04/16 10:57:41;;;;;;;5.20;1.20;;;;;;;11.65;45.41;97773.84;232267;204;151137;-59
2024/04/16 11:02:46;;;;;;;2.90;1.60;;;;;;;11.73;45.50;97774.55;232322;203;136897;-60
2024/04/16 11:07:49;;;;;;;2.90;1.10;;;;;;;11.86;45.74;97776.98;232449;204;137658;-58
2024/04/16 11:12:52;;;;;;;2.90;1.30;;;;;;;11.86;44.84;97765.42;232340;207;151960;-59
2024/04/16 11:17:56;;;;;;;4.80;1.50;;;;;;;11.79;44.79;97748.23;232474;203;137626;-60
2024/04/16 11:23:02;;;;;;;3.30;1.10;;;;;;;11.99;45.04;97747.48;232282;205;139526;-60
2024/04/16 11:28:05;;;;;;;4.00;1.20;;;;;;;12.23;43.84;97754.02;232243;207;151107;-57
2024/04/16 11:33:08;;;;;;;2.70;1.20;;;;;;;12.36;43.64;97751.92;232250;204;136933;-59
2024/04/16 11:38:26;;;;;;;3.10;1.10;;;;;;;12.47;42.84;97758.41;232325;204;137967;-59
2024/04/16 11:43:29;;;;;;;3.80;1.60;;;;;;;12.38;42.90;97772.73;232219;204;152008;-59
2024/04/16 11:48:34;;;;;;;2.50;1.10;;;;;;;12.31;42.66;97777.14;232302;207;146105;-60
2024/04/16 11:53:38;;;;;;;3.30;1.20;;;;;;;12.30;42.97;97757.28;232499;203;137632;-60
2024/04/16 11:58:41;;;;;;;3.20;1.20;;;;;;;12.37;43.10;97771.64;232117;204;151657;-59
2024/04/16 12:03:46;;;;;;;3.60;1.20;;;;;;;12.32;43.03;97795.50;232256;199;137713;-59
2024/04/16 12:08:49;;;;;;;2.70;1.20;;;;;;;12.34;43.34;97780.44;232153;207;137237;-59
2024/04/16 12:13:54;;;;;;;5.60;1.30;;;;;;;12.35;42.48;97773.38;232172;207;151230;-56
2024/04/16 12:18:58;;;;;;;3.90;1.30;;;;;;;12.38;42.44;97770.65;232335;207;137966;-57
2024/04/16 12:24:02;;;;;;;5.90;1.00;;;;;;;12.43;40.99;97771.06;232469;204;137394;-58
2024/04/16 12:29:05;;;;;;;5.70;0.90;;;;;;;12.39;39.99;97777.82;232292;207;151592;-59
2024/04/16 12:34:08;;;;;;;2.80;1.00;;;;;;;12.27;39.63;97769.10;232209;205;137527;-59
2024/04/16 12:39:12;;;;;;;4.20;0.90;;;;;;;12.15;40.92;97736.95;232237;207;136898;-61
2024/04/16 12:44:15;;;;;;;2.70;0.90;;;;;;;12.18;41.70;97708.62;232193;204;156947;-61
2024/04/16 12:49:23;;;;;;;1.70;1.00;;;;;;;12.17;41.65;97721.70;232418;203;140361;-59
2024/04/16 12:54:26;;;;;;;2.30;1.10;;;;;;;12.19;42.03;97733.53;232278;204;136875;-60
2024/04/16 12:59:31;;;;;;;4.50;1.20;;;;;;;12.35;42.12;97710.77;232462;204;151390;-61
2024/04/16 13:04:34;;;;;;;3.40;1.20;;;;;;;12.41;41.70;97728.88;232262;206;136716;-61
2024/04/16 13:09:37;;;;;;;6.50;1.20;;;;;;;12.33;41.74;97747.75;232478;207;140375;-60
2024/04/16 13:14:40;;;;;;;4.60;1.20;;;;;;;12.29;41.99;97728.36;232403;205;151231;-60
2024/04/16 13:19:48;;;;;;;3.20;1.20;;;;;;;12.28;41.95;97734.86;232245;204;138354;-59
2024/04/16 13:24:55;;;;;;;3.80;1.20;;;;;;;12.20;41.67;97737.40;232366;207;138520;-61
2024/04/16 13:29:58;;;;;;;2.50;1.10;;;;;;;12.14;42.19;97707.56;232543;203;152234;-59
2024/04/16 13:35:01;;;;;;;4.30;1.40;;;;;;;12.12;42.43;97694.15;232178;206;137070;-58
2024/04/16 13:40:06;;;;;;;3.90;1.20;;;;;;;12.10;42.23;97687.65;232383;206;137717;-59
2024/04/16 13:45:12;;;;;;;4.00;1.20;;;;;;;12.07;42.53;97715.07;232337;207;151187;-58
2024/04/16 13:50:15;;;;;;;4.20;1.40;;;;;;;12.09;42.45;97726.29;232149;207;137426;-59
2024/04/16 13:55:18;;;;;;;3.70;1.40;;;;;;;12.06;42.58;97726.02;232194;204;137761;-61
2024/04/16 14:00:21;;;;;;;3.30;1.40;;;;;;;12.06;42.33;97727.23;232416;203;152207;-61
2024/04/16 14:05:25;;;;;;;4.20;1.40;;;;;;;12.06;42.27;97720.45;232532;206;138566;-61
2024/04/16 14:10:29;;;;;;;4.30;1.50;;;;;;;12.10;41.78;97708.55;232217;200;249328;-60
2024/04/16 14:15:33;;;;;;;7.20;1.30;;;;;;;12.32;42.20;97696.59;232287;207;151841;-59
2024/04/16 14:20:36;;;;;;;3.90;1.30;;;;;;;12.61;41.89;97687.56;232385;203;140173;-61
2024/04/16 14:25:39;;;;;;;7.00;1.30;;;;;;;12.77;41.35;97690.92;232414;206;138496;-60
2024/04/16 14:30:42;;;;;;;4.90;1.20;;;;;;;12.82;40.82;97691.55;232475;203;151124;-60
2024/04/16 14:35:46;;;;;;;4.80;1.30;;;;;;;12.80;40.76;97689.92;232390;207;136761;-61
2024/04/16 14:40:49;;;;;;;4.50;1.00;;;;;;;12.72;40.86;97702.23;232341;204;137876;-60
2024/04/16 14:45:52;;;;;;;6.10;1.40;;;;;;;12.62;40.11;97719.56;232345;207;152080;-60
2024/04/16 14:50:55;;;;;;;4.60;1.30;;;;;;;12.51;39.41;97713.94;232240;204;141409;-61
2024/04/16 14:56:02;;;;;;;3.30;0.90;;;;;;;12.41;39.34;97716.42;232264;207;137644;-60
2024/04/16 15:01:06;;;;;;;2.50;1.10;;;;;;;12.35;40.06;97717.36;232431;206;151461;-55
2024/04/16 15:06:09;;;;;;;3.20;1.20;;;;;;;12.31;40.58;97717.15;232506;206;136983;-57
2024/04/16 15:11:12;;;;;;;2.50;1.00;;;;;;;12.30;41.05;97709.94;232276;204;137086;-56
2024/04/16 15:16:15;;;;;;;3.30;1.10;;;;;;;12.23;40.85;97698.67;232276;207;151377;-54
2024/04/16 15:21:18;;;;;;;4.00;1.30;;;;;;;12.17;41.15;97697.11;232252;204;137215;-55
2024/04/16 15:26:22;;;;;;;5.60;1.60;;;;;;;12.11;41.50;97700.66;232301;203;251169;-54
2024/04/16 15:31:24;;;;;;;3.50;1.20;;;;;;;12.12;42.10;97699.38;232367;206;151830;-57
2024/04/16 15:36:27;;;;;;;2.50;1.10;;;;;;;12.12;42.19;97690.81;232299;203;136742;-56
2024/04/16 15:41:30;;;;;;;4.90;1.10;;;;;;;12.15;42.16;97686.30;232517;203;139581;-56
2024/04/16 15:46:36;;;;;;;8.80;1.40;;;;;;;12.14;42.04;97691.95;232251;206;152635;-57
2024/04/16 15:51:39;;;;;;;3.30;1.30;;;;;;;12.21;42.36;97703.51;232439;203;137762;-55
2024/04/16 15:56:42;;;;;;;3.50;1.80;;;;;;;12.29;42.98;97700.98;232267;207;136780;-54
2024/04/16 16:01:45;;;;;;;4.10;1.50;;;;;;;12.39;42.62;97704.75;232318;203;152098;-55
2024/04/16 16:06:48;;;;;;;4.20;1.60;;;;;;;12.46;42.46;97709.25;232359;206;137825;-55
2024/04/16 16:11:51;;;;;;;5.10;1.50;;;;;;;12.42;41.89;97705.67;232167;204;137313;-56
2024/04/16 16:16:54;;;;;;;3.60;1.40;;;;;;;12.36;42.16;97701.14;231957;207;151694;-55
2024/04/16 16:21:57;;;;;;;3.60;1.10;;;;;;;12.27;42.18;97685.86;232371;207;138637;-56
2024/04/16 16:27:01;;;;;;;4.40;1.30;;;;;;;12.24;42.22;97674.64;232371;204;137116;-56
2024/04/16 16:32:04;;;;;;;2.30;1.30;;;;;;;12.25;42.41;97689.44;232522;207;151111;-57
2024/04/16 16:37:08;;;;;;;8.50;1.30;;;;;;;12.24;42.41;97683.81;232281;206;136849;-57
2024/04/16 16:42:11;;;;;;;18.10;10.90;;;;;;;12.23;43.26;97683.05;232530;204;137669;-55
2024/04/16 16:47:14;;;;;;;5.00;1.90;;;;;;;12.25;42.72;97659.89;232380;202;151825;-55
2024/04/16 16:52:17;;;;;;;8.00;1.70;;;;;;;12.16;42.39;97662.76;232476;204;138199;-56
2024/04/16 16:57:20;;;;;;;3.80;1.80;;;;;;;12.03;44.11;97656.20;232415;204;137930;-56
2024/04/16 17:02:24;;;;;;;7.80;2.20;;;;;;;11.95;45.11;97659.84;232346;204;151559;-56
2024/04/16 17:07:27;;;;;;;6.40;2.30;;;;;;;11.87;45.87;97668.38;232506;203;137506;-55
2024/04/16 17:12:30;;;;;;;5.20;2.10;;;;;;;11.75;46.42;97676.66;232359;200;137762;-53
2024/04/16 17:17:34;;;;;;;5.80;2.20;;;;;;;11.63;46.74;97682.90;232474;207;151097;-52
2024/04/16 17:22:37;;;;;;;4.70;2.10;;;;;;;11.48;47.27;97697.67;232306;203;138962;-52
2024/04/16 17:27:40;;;;;;;5.00;1.80;;;;;;;11.39;47.70;97700.07;232453;204;137468;-56
2024/04/16 17:32:43;;;;;;;4.10;2.00;;;;;;;11.30;47.93;97699.44;232385;203;151682;-55
2024/04/16 17:37:46;;;;;;;6.60;2.30;;;;;;;11.23;48.18;97705.93;232374;200;137157;-54
2024/04/16 17:42:49;;;;;;;4.90;2.40;;;;;;;11.16;48.47;97699.95;232437;207;136633;-54
2024/04/16 17:47:52;;;;;;;6.10;2.60;;;;;;;11.08;48.99;97698.67;232526;204;151827;-57
2024/04/16 17:52:56;;;;;;;10.90;2.30;;;;;;;11.05;49.20;97703.84;232499;206;136627;-55
2024/04/16 17:58:00;;;;;;;13.10;2.90;;;;;;;11.04;49.55;97705.24;232446;203;136640;-57
2024/04/16 18:03:06;;;;;;;10.60;2.30;;;;;;;10.99;49.77;97712.73;232359;203;152087;-55
2024/04/16 18:08:09;;;;;;;7.20;2.40;;;;;;;10.97;49.82;97718.63;232226;204;140547;-56
2024/04/16 18:13:12;;;;;;;8.80;3.50;;;;;;;10.95;49.82;97724.77;232388;203;137731;-56
2024/04/16 18:18:15;;;;;;;6.70;2.20;;;;;;;10.94;49.86;97737.34;232537;206;151485;-55
2024/04/16 18:23:19;;;;;;;7.70;2.30;;;;;;;10.90;49.73;97725.89;232289;206;137682;-54
2024/04/16 18:28:22;;;;;;;9.00;2.40;;;;;;;10.91;49.64;97729.92;232343;206;137281;-54
2024/04/16 18:33:25;;;;;;;15.70;10.30;;;;;;;10.88;49.56;97733.73;232508;203;151805;-54
2024/04/16 18:38:29;;;;;;;132.30;87.30;;;;;;;10.90;50.42;97733.42;232327;199;138071;-56
2024/04/16 18:43:32;;;;;;;14.60;5.10;;;;;;;11.02;50.58;97721.89;232318;204;137891;-55
2024/04/16 18:48:36;;;;;;;6.90;3.20;;;;;;;11.09;49.75;97714.20;232425;199;151683;-56
2024/04/16 18:53:39;;;;;;;6.50;2.40;;;;;;;11.03;50.19;97713.16;232595;203;137537;-57
2024/04/16 18:58:42;;;;;;;5.90;2.60;;;;;;;10.85;51.74;97707.71;232408;204;137745;-56
2024/04/16 19:03:45;;;;;;;8.40;3.10;;;;;;;10.67;52.65;97708.39;232406;206;153483;-55
2024/04/16 19:08:48;;;;;;;7.50;2.70;;;;;;;10.50;53.02;97695.05;232235;204;138993;-55
2024/04/16 19:13:51;;;;;;;7.90;2.70;;;;;;;10.32;53.79;97699.52;232281;203;136693;-56
2024/04/16 19:18:54;;;;;;;12.60;3.50;;;;;;;10.16;54.37;97702.80;232383;206;151617;-53
2024/04/16 19:23:57;;;;;;;22.00;3.80;;;;;;;10.03;54.92;97704.06;232513;203;140695;-66
2024/04/16 19:29:01;;;;;;;554.60;465.30;;;;;;;9.92;55.17;97709.02;232303;204;137309;-54
2024/04/16 19:34:04;;;;;;;452.00;302.20;;;;;;;9.88;55.99;97704.53;232401;207;151502;-41
2024/04/16 19:39:07;;;;;;;49.30;29.80;;;;;;;9.87;56.54;97696.95;232375;203;137839;-55
2024/04/16 19:44:10;;;;;;;23.40;8.20;;;;;;;9.85;55.39;97684.80;232428;206;138976;-56
2024/04/16 19:49:13;;;;;;;15.30;4.60;;;;;;;9.76;55.97;97675.73;232370;206;152922;-54
2024/04/16 19:54:16;;;;;;;12.90;3.60;;;;;;;9.67;56.53;97676.81;232493;206;137707;-56
2024/04/16 19:59:21;;;;;;;13.10;4.30;;;;;;;9.58;56.89;97669.27;232460;204;137163;-55
2024/04/16 20:04:24;;;;;;;19.00;4.10;;;;;;;9.52;57.38;97666.70;232552;199;151613;-55
2024/04/16 20:09:27;;;;;;;12.10;3.90;;;;;;;9.44;57.51;97665.95;232490;203;140189;-57
2024/04/16 20:14:36;;;;;;;12.30;4.00;;;;;;;9.35;57.32;97664.15;232405;204;138053;-56
2024/04/16 20:19:39;;;;;;;14.30;4.00;;;;;;;9.28;56.86;97662.61;232353;204;151943;-55
2024/04/16 20:24:45;;;;;;;15.20;5.10;;;;;;;9.25;57.41;97663.52;232426;207;136830;-56
2024/04/16 20:29:51;;;;;;;328.40;265.00;;;;;;;9.22;57.90;97668.12;232625;204;136750;-55
2024/04/16 20:34:54;;;;;;;212.00;136.90;;;;;;;9.19;58.39;97670.37;232439;207;152638;-55
2024/04/16 20:39:57;;;;;;;23.20;12.00;;;;;;;9.13;58.32;97674.91;232402;206;138046;-55
2024/04/16 20:45:01;;;;;;;14.30;5.50;;;;;;;9.06;58.36;97677.20;232450;203;137876;-53
2024/04/16 20:50:04;;;;;;;10.60;4.20;;;;;;;8.99;58.61;97677.21;232471;203;151271;-53
2024/04/16 20:55:08;;;;;;;11.10;4.60;;;;;;;8.97;58.97;97687.96;232467;206;136924;-57
2024/04/16 21:00:11;;;;;;;14.80;4.70;;;;;;;8.88;59.58;97696.15;232648;202;136562;-56
2024/04/16 21:05:14;;;;;;;10.00;4.20;;;;;;;8.82;59.80;97697.13;232417;200;151758;-57
2024/04/16 21:10:17;;;;;;;19.80;4.90;;;;;;;8.74;59.84;97695.23;232377;203;137245;-56
2024/04/16 21:15:21;;;;;;;124.30;80.40;;;;;;;8.67;60.39;97701.08;232352;204;136759;-57
2024/04/16 21:20:24;;;;;;;15.60;6.10;;;;;;;8.66;60.98;97703.06;232383;206;151481;-57
2024/04/16 21:25:27;;;;;;;21.70;5.50;;;;;;;8.58;60.94;97702.65;232442;207;137459;-56
2024/04/16 21:30:30;;;;;;;17.90;5.00;;;;;;;8.51;60.69;97703.55;232373;207;140277;-56
2024/04/16 21:35:35;;;;;;;17.00;5.00;;;;;;;8.48;60.96;97695.48;232484;203;151602;-54
2024/04/16 21:40:38;;;;;;;13.50;4.80;;;;;;;8.44;61.15;97705.83;232366;206;140904;-56
2024/04/16 21:45:42;;;;;;;13.40;5.20;;;;;;;8.39;61.01;97704.81;232465;203;138838;-56
2024/04/16 21:50:50;;;;;;;15.10;5.20;;;;;;;8.34;61.55;97700.54;232436;206;151066;-56
2024/04/16 21:55:52;;;;;;;16.20;5.00;;;;;;;8.27;61.68;97693.42;232427;203;137582;-56
2024/04/16 22:00:56;;;;;;;15.80;5.00;;;;;;;8.23;61.55;97682.78;232462;204;137606;-56
2024/04/16 22:06:01;;;;;;;9.50;4.70;;;;;;;8.25;61.25;97682.08;232611;203;151712;-56
2024/04/16 22:11:03;;;;;;;9.30;4.70;;;;;;;8.28;60.62;97690.55;232438;203;137908;-55
2024/04/16 22:16:08;;;;;;;10.30;4.60;;;;;;;8.26;60.29;97688.59;232435;204;137304;-56
2024/04/16 22:21:11;;;;;;;10.60;4.70;;;;;;;8.29;59.33;97681.98;232497;203;151346;-56
2024/04/16 22:26:14;;;;;;;8.90;4.20;;;;;;;8.37;58.80;97676.65;232460;206;136620;-57
2024/04/16 22:31:17;;;;;;;7.20;3.60;;;;;;;8.46;58.29;97676.14;232373;207;139007;-56
2024/04/16 22:36:20;;;;;;;5.50;3.20;;;;;;;8.59;57.56;97672.86;232577;199;151756;-56
2024/04/16 22:41:25;;;;;;;7.30;3.40;;;;;;;8.66;56.87;97667.89;232419;203;136996;-55
2024/04/16 22:46:29;;;;;;;7.70;3.50;;;;;;;8.71;56.49;97668.91;232329;204;137031;-55
2024/04/16 22:51:32;;;;;;;9.00;4.00;;;;;;;8.73;56.16;97670.54;232288;201;152173;-56
2024/04/16 22:56:35;;;;;;;9.70;3.90;;;;;;;8.75;55.89;97676.77;232391;200;137677;-57
2024/04/16 23:01:38;;;;;;;6.10;3.10;;;;;;;8.76;55.71;97680.05;232423;203;137124;-57
2024/04/16 23:06:41;;;;;;;7.60;3.30;;;;;;;8.76;55.57;97681.64;232388;203;151845;-54
2024/04/16 23:11:44;;;;;;;9.60;3.60;;;;;;;8.73;55.56;97681.70;232468;203;136579;-55
2024/04/16 23:16:47;;;;;;;6.50;3.30;;;;;;;8.65;55.48;97689.56;232465;206;136778;-56
2024/04/16 23:21:50;;;;;;;7.00;3.10;;;;;;;8.66;55.51;97691.45;232350;207;151398;-55
2024/04/16 23:26:53;;;;;;;7.80;3.50;;;;;;;8.64;55.42;97696.41;232307;207;136693;-57